Long Beach, CA (90815)

2:58 AM PDT on May 27, 2015 (GMT -0700)
East Long Beach (ke6jdc wthr-net) | | Change Station
CLOSE
Current Station
Personal Weather Station
Location: Long Beach, CA
Elevation: 45 ft
Nearby Weather Stations

Elev 45 ft 33.79 °N, 118.11 °W | Updated 3 minutes ago

Overcast
Overcast
60.8 °F
Feels Like 60.8 °F
N
1.0
Wind Variable Wind from SW
Gusts 1.0 mph

Today
High -- | Low -- °F
--% Chance of Precip.
Yesterday
High -- | Low -- °F
Precip. -- in
5:44 AM 7:54 PM
Waxing Gibbous, 66% visible
Pressure 29.99 in
Visibility 10.0 miles
Clouds Few 1800 ft
Overcast 2400 ft
Dew Point 52 °F
Humidity 74%
Rainfall 0.00 in
Snow Depth Not available.
UV 0 out of 12
Pollen 4.70 out of 12
Air Quality Not available.
Flu Activity Sporadic
METAR KLGB 270853Z AUTO 32005KT 10SM FEW018 OVC024 17/12 A2999

More Conditions Fewer Conditions

Pressure 29.99 in
Visibility 10.0 miles
Clouds Few 1800 ft
Overcast 2400 ft
Dew Point 52 °F
Humidity 74%
Rainfall 0.00 in
Snow Depth Not available.
UV 0 out of 12
Pollen 4.70 out of 12
Air Quality Not available.
Flu Activity Sporadic
METAR KLGB 270853Z AUTO 32005KT 10SM FEW018 OVC024 17/12 A2999

More Conditions Fewer Conditions

10-Day Weather Forecast

Almanac

Astronomy

May. 27, 2015 Rise Set
Actual Time
Civil Twilight
Nautical Twilight
Astronomical Twilight
Moon
Length of Visible Light
Length of Day
Tomorrow will be .
, % of the Moon is Illuminated

Today's Extremes

State Highs State Lows

Community

WunderPhotos

Upload Photos

1,824,635 photos uploaded!

WunderBlogs® & News

Nearby

Air Quality

  Air Quality AQ Index Pollutant
Not available.

Snow Depth

Station Depth Elevation

Earthquake Activity

City Distance Mag. Time & Date
Minimum magnitude displayed is 2.5.

Coastal Water Temperatures

Place Temperature

Stations

Nearby Weather Stations

Station Location Temp. Windchill Dew Point Humidity Wind Precip. Elev Updated Type